Archival Weather

General Ignacio P Garcia Intl

General Ignacio P Garcia Intl, Mexico (MMHO)

Report from: Wednesday, December 6, 2023 7:40 PM CST
Current time: Tuesday, May 21, 2024 10:50 AM CST

Current weather – Weather history – Daily summaries
Weather forecast

Temperature23.0°C (73.4°F)
Dew point-2.0°C (28.4°F)
Winds 2 kts (1 m/s, 2.3 mph) South-Southwest (210°)
Visibility10 mi. (16.1 km)
Clouds Sky clear
Altimeter30.00 in.Hg (1016 mB)
Relative humidity19 %
Density altitude927 ft. (283 m)
Flight conditions Visual Meteorological Conditions
Raw dataMMHO 070140Z 21002KT 10SM SKC 23/M02 A3000 RMK HZY
An error has occurred. This application may no longer respond until reloaded. Reload 🗙